sensor_id;sensor_type;location;lat;lon;timestamp;P1;durP1;ratioP1;P2;durP2;ratioP2
19251;SDS011;9760;50.944;5.304;2023-02-01T00:01:59;26.57;;;6.43;;
19251;SDS011;9760;50.944;5.304;2023-02-01T00:04:25;24.23;;;7.20;;
19251;SDS011;9760;50.944;5.304;2023-02-01T00:06:51;32.20;;;6.93;;
19251;SDS011;9760;50.944;5.304;2023-02-01T00:09:16;23.80;;;6.80;;
19251;SDS011;9760;50.944;5.304;2023-02-01T00:11:42;27.07;;;7.93;;
19251;SDS011;9760;50.944;5.304;2023-02-01T00:14:08;25.67;;;7.77;;
19251;SDS011;9760;50.944;5.304;2023-02-01T00:16:34;35.30;;;7.63;;
19251;SDS011;9760;50.944;5.304;2023-02-01T00:19:02;23.93;;;7.73;;
19251;SDS011;9760;50.944;5.304;2023-02-01T00:21:30;26.97;;;8.33;;
19251;SDS011;9760;50.944;5.304;2023-02-01T00:23:56;25.40;;;8.20;;
19251;SDS011;9760;50.944;5.304;2023-02-01T00:26:24;26.23;;;8.10;;
19251;SDS011;9760;50.944;5.304;2023-02-01T00:28:58;30.33;;;8.97;;
19251;SDS011;9760;50.944;5.304;2023-02-01T00:31:24;28.43;;;8.67;;
19251;SDS011;9760;50.944;5.304;2023-02-01T00:33:50;29.30;;;9.23;;
19251;SDS011;9760;50.944;5.304;2023-02-01T00:36:15;31.97;;;9.87;;
19251;SDS011;9760;50.944;5.304;2023-02-01T00:38:41;44.73;;;10.13;;
19251;SDS011;9760;50.944;5.304;2023-02-01T00:41:12;34.03;;;9.80;;
19251;SDS011;9760;50.944;5.304;2023-02-01T00:43:38;37.80;;;10.27;;
19251;SDS011;9760;50.944;5.304;2023-02-01T00:46:04;31.63;;;8.90;;
19251;SDS011;9760;50.944;5.304;2023-02-01T00:48:30;33.37;;;10.37;;
19251;SDS011;9760;50.944;5.304;2023-02-01T00:51:02;28.47;;;9.70;;
19251;SDS011;9760;50.944;5.304;2023-02-01T00:53:30;32.67;;;9.53;;
19251;SDS011;9760;50.944;5.304;2023-02-01T00:55:56;30.33;;;8.70;;
19251;SDS011;9760;50.944;5.304;2023-02-01T00:58:22;29.60;;;8.40;;
19251;SDS011;9760;50.944;5.304;2023-02-01T01:00:56;29.63;;;8.33;;
19251;SDS011;9760;50.944;5.304;2023-02-01T01:03:29;26.93;;;8.60;;
19251;SDS011;9760;50.944;5.304;2023-02-01T01:05:58;29.27;;;7.63;;
19251;SDS011;9760;50.944;5.304;2023-02-01T01:08:25;25.77;;;7.33;;
19251;SDS011;9760;50.944;5.304;2023-02-01T01:10:51;21.20;;;6.43;;
19251;SDS011;9760;50.944;5.304;2023-02-01T01:13:17;32.27;;;7.77;;
19251;SDS011;9760;50.944;5.304;2023-02-01T01:15:43;30.87;;;7.40;;
19251;SDS011;9760;50.944;5.304;2023-02-01T01:18:08;36.83;;;8.27;;
19251;SDS011;9760;50.944;5.304;2023-02-01T01:20:36;32.27;;;8.40;;
19251;SDS011;9760;50.944;5.304;2023-02-01T01:23:03;32.77;;;9.00;;
19251;SDS011;9760;50.944;5.304;2023-02-01T01:25:30;32.37;;;9.20;;
19251;SDS011;9760;50.944;5.304;2023-02-01T01:27:56;29.27;;;9.43;;
19251;SDS011;9760;50.944;5.304;2023-02-01T01:30:22;28.57;;;8.67;;
19251;SDS011;9760;50.944;5.304;2023-02-01T01:32:47;30.53;;;9.80;;
19251;SDS011;9760;50.944;5.304;2023-02-01T01:35:13;30.60;;;10.60;;
19251;SDS011;9760;50.944;5.304;2023-02-01T01:37:39;30.27;;;10.10;;
19251;SDS011;9760;50.944;5.304;2023-02-01T01:40:05;35.87;;;10.93;;
19251;SDS011;9760;50.944;5.304;2023-02-01T01:42:42;31.93;;;10.90;;
19251;SDS011;9760;50.944;5.304;2023-02-01T01:47:58;29.03;;;10.50;;
19251;SDS011;9760;50.944;5.304;2023-02-01T01:50:48;44.80;;;12.07;;
19251;SDS011;9760;50.944;5.304;2023-02-01T01:53:18;41.07;;;11.53;;
19251;SDS011;9760;50.944;5.304;2023-02-01T01:55:48;36.70;;;10.03;;
19251;SDS011;9760;50.944;5.304;2023-02-01T01:58:17;35.67;;;11.03;;
19251;SDS011;9760;50.944;5.304;2023-02-01T02:00:46;33.27;;;10.73;;
19251;SDS011;9760;50.944;5.304;2023-02-01T02:03:17;43.03;;;11.43;;
19251;SDS011;9760;50.944;5.304;2023-02-01T02:05:46;38.20;;;10.77;;
19251;SDS011;9760;50.944;5.304;2023-02-01T02:08:15;31.47;;;10.40;;
19251;SDS011;9760;50.944;5.304;2023-02-01T02:10:42;31.73;;;8.83;;
19251;SDS011;9760;50.944;5.304;2023-02-01T02:16:02;29.97;;;9.43;;
19251;SDS011;9760;50.944;5.304;2023-02-01T02:19:01;32.03;;;9.70;;
19251;SDS011;9760;50.944;5.304;2023-02-01T02:27:15;39.43;;;7.67;;
19251;SDS011;9760;50.944;5.304;2023-02-01T02:38:19;21.20;;;5.47;;
19251;SDS011;9760;50.944;5.304;2023-02-01T02:43:27;22.30;;;4.27;;
19251;SDS011;9760;50.944;5.304;2023-02-01T02:46:22;22.00;;;3.73;;
19251;SDS011;9760;50.944;5.304;2023-02-01T02:49:53;24.53;;;3.83;;
19251;SDS011;9760;50.944;5.304;2023-02-01T02:53:10;22.63;;;3.67;;
19251;SDS011;9760;50.944;5.304;2023-02-01T02:55:56;16.80;;;2.90;;
19251;SDS011;9760;50.944;5.304;2023-02-01T02:58:42;20.77;;;3.17;;
19251;SDS011;9760;50.944;5.304;2023-02-01T03:01:28;24.67;;;2.73;;
19251;SDS011;9760;50.944;5.304;2023-02-01T03:04:13;20.37;;;3.30;;
19251;SDS011;9760;50.944;5.304;2023-02-01T03:06:43;18.83;;;3.17;;
19251;SDS011;9760;50.944;5.304;2023-02-01T03:09:13;18.57;;;3.37;;
19251;SDS011;9760;50.944;5.304;2023-02-01T03:11:56;20.20;;;3.27;;
19251;SDS011;9760;50.944;5.304;2023-02-01T03:14:46;23.27;;;3.13;;
19251;SDS011;9760;50.944;5.304;2023-02-01T03:17:17;27.93;;;3.43;;
19251;SDS011;9760;50.944;5.304;2023-02-01T03:19:46;20.37;;;3.37;;
19251;SDS011;9760;50.944;5.304;2023-02-01T03:22:22;19.90;;;3.43;;
19251;SDS011;9760;50.944;5.304;2023-02-01T03:24:52;18.53;;;3.50;;
19251;SDS011;9760;50.944;5.304;2023-02-01T03:27:33;23.00;;;3.30;;
19251;SDS011;9760;50.944;5.304;2023-02-01T03:32:30;23.23;;;2.93;;
19251;SDS011;9760;50.944;5.304;2023-02-01T03:35:17;22.33;;;3.33;;
19251;SDS011;9760;50.944;5.304;2023-02-01T03:37:45;16.13;;;2.90;;
19251;SDS011;9760;50.944;5.304;2023-02-01T03:40:12;19.30;;;3.23;;
19251;SDS011;9760;50.944;5.304;2023-02-01T03:42:41;16.03;;;2.83;;
19251;SDS011;9760;50.944;5.304;2023-02-01T03:45:14;24.57;;;3.20;;
19251;SDS011;9760;50.944;5.304;2023-02-01T03:47:52;18.27;;;3.27;;
19251;SDS011;9760;50.944;5.304;2023-02-01T03:50:25;20.47;;;2.83;;
19251;SDS011;9760;50.944;5.304;2023-02-01T03:53:02;25.77;;;3.90;;
19251;SDS011;9760;50.944;5.304;2023-02-01T03:55:32;39.53;;;4.13;;
19251;SDS011;9760;50.944;5.304;2023-02-01T03:58:02;19.13;;;3.53;;
19251;SDS011;9760;50.944;5.304;2023-02-01T04:00:36;26.23;;;3.43;;
19251;SDS011;9760;50.944;5.304;2023-02-01T04:03:02;22.10;;;3.10;;
19251;SDS011;9760;50.944;5.304;2023-02-01T04:05:29;24.00;;;3.03;;
19251;SDS011;9760;50.944;5.304;2023-02-01T04:07:55;17.40;;;3.37;;
19251;SDS011;9760;50.944;5.304;2023-02-01T04:10:21;19.53;;;3.50;;
19251;SDS011;9760;50.944;5.304;2023-02-01T04:12:46;22.63;;;3.27;;
19251;SDS011;9760;50.944;5.304;2023-02-01T04:15:12;25.53;;;3.43;;
19251;SDS011;9760;50.944;5.304;2023-02-01T04:17:38;16.90;;;3.60;;
19251;SDS011;9760;50.944;5.304;2023-02-01T04:20:03;18.57;;;2.97;;
19251;SDS011;9760;50.944;5.304;2023-02-01T04:22:30;29.30;;;3.63;;
19251;SDS011;9760;50.944;5.304;2023-02-01T04:24:55;31.07;;;3.13;;
19251;SDS011;9760;50.944;5.304;2023-02-01T04:27:21;25.37;;;3.60;;
19251;SDS011;9760;50.944;5.304;2023-02-01T04:29:47;31.20;;;4.30;;
19251;SDS011;9760;50.944;5.304;2023-02-01T04:32:14;17.73;;;2.90;;
19251;SDS011;9760;50.944;5.304;2023-02-01T04:34:41;18.80;;;2.77;;
19251;SDS011;9760;50.944;5.304;2023-02-01T04:37:07;29.00;;;3.33;;
19251;SDS011;9760;50.944;5.304;2023-02-01T04:39:32;18.10;;;2.90;;
19251;SDS011;9760;50.944;5.304;2023-02-01T04:41:58;31.40;;;3.47;;
19251;SDS011;9760;50.944;5.304;2023-02-01T04:44:24;21.37;;;3.33;;
19251;SDS011;9760;50.944;5.304;2023-02-01T04:46:49;18.63;;;3.10;;
19251;SDS011;9760;50.944;5.304;2023-02-01T04:49:15;13.37;;;2.73;;
19251;SDS011;9760;50.944;5.304;2023-02-01T04:51:41;17.47;;;3.57;;
19251;SDS011;9760;50.944;5.304;2023-02-01T04:54:08;33.30;;;4.03;;
19251;SDS011;9760;50.944;5.304;2023-02-01T04:56:36;23.27;;;3.43;;
19251;SDS011;9760;50.944;5.304;2023-02-01T04:59:02;30.80;;;3.47;;
19251;SDS011;9760;50.944;5.304;2023-02-01T05:01:28;14.73;;;2.77;;
19251;SDS011;9760;50.944;5.304;2023-02-01T05:03:54;14.87;;;2.97;;
19251;SDS011;9760;50.944;5.304;2023-02-01T05:06:20;22.37;;;3.80;;
19251;SDS011;9760;50.944;5.304;2023-02-01T05:08:49;23.50;;;3.50;;
19251;SDS011;9760;50.944;5.304;2023-02-01T05:11:15;25.63;;;3.27;;
19251;SDS011;9760;50.944;5.304;2023-02-01T05:14:00;15.57;;;2.63;;
19251;SDS011;9760;50.944;5.304;2023-02-01T05:16:25;25.83;;;3.03;;
19251;SDS011;9760;50.944;5.304;2023-02-01T05:18:52;24.40;;;3.97;;
19251;SDS011;9760;50.944;5.304;2023-02-01T05:21:19;25.77;;;3.43;;
19251;SDS011;9760;50.944;5.304;2023-02-01T05:23:45;20.27;;;3.10;;
19251;SDS011;9760;50.944;5.304;2023-02-01T05:26:29;29.83;;;4.40;;
19251;SDS011;9760;50.944;5.304;2023-02-01T05:28:55;19.80;;;3.63;;
19251;SDS011;9760;50.944;5.304;2023-02-01T05:31:21;20.97;;;3.77;;
19251;SDS011;9760;50.944;5.304;2023-02-01T05:33:47;27.87;;;3.90;;
19251;SDS011;9760;50.944;5.304;2023-02-01T05:36:13;24.27;;;3.97;;
19251;SDS011;9760;50.944;5.304;2023-02-01T05:38:39;28.27;;;3.97;;
19251;SDS011;9760;50.944;5.304;2023-02-01T05:41:04;25.67;;;3.27;;
19251;SDS011;9760;50.944;5.304;2023-02-01T05:43:30;21.57;;;3.27;;
19251;SDS011;9760;50.944;5.304;2023-02-01T05:45:55;27.30;;;3.50;;
19251;SDS011;9760;50.944;5.304;2023-02-01T05:48:21;20.10;;;3.50;;
19251;SDS011;9760;50.944;5.304;2023-02-01T05:50:47;19.73;;;3.17;;
19251;SDS011;9760;50.944;5.304;2023-02-01T05:53:12;22.93;;;3.83;;
19251;SDS011;9760;50.944;5.304;2023-02-01T05:55:38;28.60;;;4.00;;
19251;SDS011;9760;50.944;5.304;2023-02-01T05:58:04;29.13;;;3.70;;
19251;SDS011;9760;50.944;5.304;2023-02-01T06:00:30;18.10;;;3.37;;
19251;SDS011;9760;50.944;5.304;2023-02-01T06:02:56;26.60;;;3.77;;
19251;SDS011;9760;50.944;5.304;2023-02-01T06:05:22;23.53;;;3.07;;
19251;SDS011;9760;50.944;5.304;2023-02-01T06:07:48;37.50;;;5.70;;
19251;SDS011;9760;50.944;5.304;2023-02-01T06:10:17;27.10;;;3.30;;
19251;SDS011;9760;50.944;5.304;2023-02-01T06:12:43;26.07;;;3.37;;
19251;SDS011;9760;50.944;5.304;2023-02-01T06:15:10;23.10;;;3.60;;
19251;SDS011;9760;50.944;5.304;2023-02-01T06:17:43;23.97;;;3.20;;
19251;SDS011;9760;50.944;5.304;2023-02-01T06:20:10;25.73;;;3.00;;
19251;SDS011;9760;50.944;5.304;2023-02-01T06:22:38;31.93;;;4.23;;
19251;SDS011;9760;50.944;5.304;2023-02-01T06:25:04;22.47;;;3.77;;
19251;SDS011;9760;50.944;5.304;2023-02-01T06:27:32;19.37;;;3.53;;
19251;SDS011;9760;50.944;5.304;2023-02-01T06:29:58;36.93;;;3.67;;
19251;SDS011;9760;50.944;5.304;2023-02-01T06:32:24;28.43;;;3.87;;
19251;SDS011;9760;50.944;5.304;2023-02-01T06:34:50;33.97;;;3.83;;
19251;SDS011;9760;50.944;5.304;2023-02-01T06:37:17;26.20;;;3.57;;
19251;SDS011;9760;50.944;5.304;2023-02-01T06:39:44;26.90;;;4.17;;
19251;SDS011;9760;50.944;5.304;2023-02-01T06:42:09;26.53;;;3.87;;
19251;SDS011;9760;50.944;5.304;2023-02-01T06:44:35;18.30;;;3.50;;
19251;SDS011;9760;50.944;5.304;2023-02-01T06:47:01;26.70;;;3.53;;
19251;SDS011;9760;50.944;5.304;2023-02-01T06:49:29;24.90;;;3.97;;
19251;SDS011;9760;50.944;5.304;2023-02-01T06:51:54;23.87;;;3.57;;
19251;SDS011;9760;50.944;5.304;2023-02-01T06:54:20;22.07;;;3.77;;
19251;SDS011;9760;50.944;5.304;2023-02-01T06:56:46;24.37;;;3.50;;
19251;SDS011;9760;50.944;5.304;2023-02-01T06:59:11;23.40;;;3.97;;
19251;SDS011;9760;50.944;5.304;2023-02-01T07:01:37;23.70;;;3.53;;
19251;SDS011;9760;50.944;5.304;2023-02-01T07:04:03;29.00;;;3.77;;
19251;SDS011;9760;50.944;5.304;2023-02-01T07:06:29;34.53;;;4.40;;
19251;SDS011;9760;50.944;5.304;2023-02-01T07:08:55;30.97;;;3.57;;
19251;SDS011;9760;50.944;5.304;2023-02-01T07:11:22;20.47;;;3.70;;
19251;SDS011;9760;50.944;5.304;2023-02-01T07:13:48;22.30;;;3.30;;
19251;SDS011;9760;50.944;5.304;2023-02-01T07:16:19;33.77;;;3.40;;
19251;SDS011;9760;50.944;5.304;2023-02-01T07:18:45;23.90;;;3.90;;
19251;SDS011;9760;50.944;5.304;2023-02-01T07:21:12;28.17;;;3.17;;
19251;SDS011;9760;50.944;5.304;2023-02-01T07:23:37;28.23;;;3.97;;
19251;SDS011;9760;50.944;5.304;2023-02-01T07:26:05;24.07;;;3.37;;
19251;SDS011;9760;50.944;5.304;2023-02-01T07:28:32;24.03;;;4.40;;
19251;SDS011;9760;50.944;5.304;2023-02-01T07:31:18;19.43;;;3.07;;
19251;SDS011;9760;50.944;5.304;2023-02-01T07:33:46;27.97;;;3.10;;
19251;SDS011;9760;50.944;5.304;2023-02-01T07:36:19;23.57;;;4.27;;
19251;SDS011;9760;50.944;5.304;2023-02-01T07:38:45;28.20;;;3.53;;
19251;SDS011;9760;50.944;5.304;2023-02-01T07:41:16;29.40;;;4.83;;
19251;SDS011;9760;50.944;5.304;2023-02-01T07:43:42;27.93;;;3.97;;
19251;SDS011;9760;50.944;5.304;2023-02-01T07:46:09;21.30;;;3.37;;
19251;SDS011;9760;50.944;5.304;2023-02-01T07:48:36;27.10;;;4.40;;
19251;SDS011;9760;50.944;5.304;2023-02-01T07:51:06;31.13;;;3.60;;
19251;SDS011;9760;50.944;5.304;2023-02-01T07:53:36;27.40;;;3.83;;
19251;SDS011;9760;50.944;5.304;2023-02-01T07:56:07;25.80;;;3.97;;
19251;SDS011;9760;50.944;5.304;2023-02-01T07:58:41;31.67;;;4.43;;
19251;SDS011;9760;50.944;5.304;2023-02-01T08:01:14;28.10;;;3.90;;
19251;SDS011;9760;50.944;5.304;2023-02-01T08:03:45;30.50;;;3.03;;
19251;SDS011;9760;50.944;5.304;2023-02-01T08:06:11;25.93;;;3.80;;
19251;SDS011;9760;50.944;5.304;2023-02-01T08:08:37;33.83;;;4.13;;
19251;SDS011;9760;50.944;5.304;2023-02-01T08:11:04;27.93;;;3.80;;
19251;SDS011;9760;50.944;5.304;2023-02-01T08:13:32;23.90;;;3.43;;
19251;SDS011;9760;50.944;5.304;2023-02-01T08:16:02;28.90;;;4.67;;
19251;SDS011;9760;50.944;5.304;2023-02-01T08:18:29;25.20;;;3.97;;
19251;SDS011;9760;50.944;5.304;2023-02-01T08:20:55;20.80;;;3.93;;
19251;SDS011;9760;50.944;5.304;2023-02-01T08:23:21;24.23;;;3.30;;
19251;SDS011;9760;50.944;5.304;2023-02-01T08:25:47;21.73;;;3.67;;
19251;SDS011;9760;50.944;5.304;2023-02-01T08:28:13;30.00;;;3.80;;
19251;SDS011;9760;50.944;5.304;2023-02-01T08:30:39;27.20;;;4.13;;
19251;SDS011;9760;50.944;5.304;2023-02-01T08:33:06;27.80;;;4.03;;
19251;SDS011;9760;50.944;5.304;2023-02-01T08:35:36;26.87;;;4.03;;
19251;SDS011;9760;50.944;5.304;2023-02-01T08:38:03;20.17;;;3.33;;
19251;SDS011;9760;50.944;5.304;2023-02-01T08:40:30;21.23;;;3.97;;
19251;SDS011;9760;50.944;5.304;2023-02-01T08:42:56;27.47;;;3.57;;
19251;SDS011;9760;50.944;5.304;2023-02-01T08:45:23;26.43;;;4.13;;
19251;SDS011;9760;50.944;5.304;2023-02-01T08:47:51;30.00;;;3.90;;
19251;SDS011;9760;50.944;5.304;2023-02-01T08:50:20;17.30;;;3.50;;
19251;SDS011;9760;50.944;5.304;2023-02-01T08:52:46;23.77;;;3.97;;
19251;SDS011;9760;50.944;5.304;2023-02-01T08:55:12;24.00;;;3.87;;
19251;SDS011;9760;50.944;5.304;2023-02-01T08:57:39;29.67;;;4.27;;
19251;SDS011;9760;50.944;5.304;2023-02-01T09:00:06;23.07;;;4.50;;
19251;SDS011;9760;50.944;5.304;2023-02-01T09:02:34;23.03;;;3.60;;
19251;SDS011;9760;50.944;5.304;2023-02-01T09:05:00;32.50;;;4.40;;
19251;SDS011;9760;50.944;5.304;2023-02-01T09:07:26;29.87;;;4.67;;
19251;SDS011;9760;50.944;5.304;2023-02-01T09:09:51;19.30;;;3.93;;
19251;SDS011;9760;50.944;5.304;2023-02-01T09:12:19;27.00;;;3.57;;
19251;SDS011;9760;50.944;5.304;2023-02-01T09:14:45;26.00;;;4.57;;
19251;SDS011;9760;50.944;5.304;2023-02-01T09:17:11;28.77;;;4.50;;
19251;SDS011;9760;50.944;5.304;2023-02-01T09:19:38;32.03;;;4.17;;
19251;SDS011;9760;50.944;5.304;2023-02-01T09:22:04;32.30;;;3.73;;
19251;SDS011;9760;50.944;5.304;2023-02-01T09:24:30;28.83;;;3.90;;
19251;SDS011;9760;50.944;5.304;2023-02-01T09:26:55;24.37;;;4.47;;
19251;SDS011;9760;50.944;5.304;2023-02-01T09:29:21;28.13;;;5.20;;
19251;SDS011;9760;50.944;5.304;2023-02-01T09:31:47;28.63;;;3.93;;
19251;SDS011;9760;50.944;5.304;2023-02-01T09:34:12;23.03;;;3.33;;
19251;SDS011;9760;50.944;5.304;2023-02-01T09:36:38;27.17;;;3.93;;
19251;SDS011;9760;50.944;5.304;2023-02-01T09:39:04;27.27;;;3.77;;
19251;SDS011;9760;50.944;5.304;2023-02-01T09:47:34;15.87;;;3.17;;
19251;SDS011;9760;50.944;5.304;2023-02-01T09:50:05;19.93;;;3.63;;
19251;SDS011;9760;50.944;5.304;2023-02-01T09:55:16;22.10;;;3.83;;
19251;SDS011;9760;50.944;5.304;2023-02-01T09:58:04;21.03;;;4.50;;
19251;SDS011;9760;50.944;5.304;2023-02-01T10:00:49;30.53;;;3.60;;
19251;SDS011;9760;50.944;5.304;2023-02-01T10:03:20;20.40;;;3.30;;
19251;SDS011;9760;50.944;5.304;2023-02-01T10:18:15;24.93;;;3.60;;
19251;SDS011;9760;50.944;5.304;2023-02-01T10:29:45;21.13;;;3.40;;
19251;SDS011;9760;50.944;5.304;2023-02-01T10:32:20;26.00;;;3.53;;
19251;SDS011;9760;50.944;5.304;2023-02-01T10:34:49;20.40;;;3.33;;
19251;SDS011;9760;50.944;5.304;2023-02-01T10:37:30;22.57;;;3.60;;
19251;SDS011;9760;50.944;5.304;2023-02-01T10:42:35;27.00;;;3.50;;
19251;SDS011;9760;50.944;5.304;2023-02-01T10:45:02;17.43;;;2.97;;
19251;SDS011;9760;50.944;5.304;2023-02-01T10:47:28;22.57;;;3.73;;
19251;SDS011;9760;50.944;5.304;2023-02-01T10:49:58;17.17;;;3.60;;
19251;SDS011;9760;50.944;5.304;2023-02-01T10:52:45;18.83;;;3.30;;
19251;SDS011;9760;50.944;5.304;2023-02-01T10:55:34;19.80;;;3.37;;
19251;SDS011;9760;50.944;5.304;2023-02-01T10:58:04;22.87;;;3.40;;
19251;SDS011;9760;50.944;5.304;2023-02-01T11:00:44;17.07;;;2.80;;
19251;SDS011;9760;50.944;5.304;2023-02-01T11:08:55;23.20;;;3.10;;
19251;SDS011;9760;50.944;5.304;2023-02-01T11:11:23;21.53;;;3.37;;
19251;SDS011;9760;50.944;5.304;2023-02-01T11:14:34;14.37;;;3.13;;
19251;SDS011;9760;50.944;5.304;2023-02-01T11:16:39;19.27;;;3.20;;
19251;SDS011;9760;50.944;5.304;2023-02-01T11:19:05;17.60;;;3.40;;
19251;SDS011;9760;50.944;5.304;2023-02-01T11:21:32;20.13;;;3.00;;
19251;SDS011;9760;50.944;5.304;2023-02-01T11:24:05;19.07;;;3.00;;
19251;SDS011;9760;50.944;5.304;2023-02-01T11:26:47;13.57;;;3.10;;
19251;SDS011;9760;50.944;5.304;2023-02-01T11:29:14;23.63;;;3.10;;
19251;SDS011;9760;50.944;5.304;2023-02-01T11:31:44;19.13;;;3.50;;
19251;SDS011;9760;50.944;5.304;2023-02-01T11:34:17;25.07;;;3.77;;
19251;SDS011;9760;50.944;5.304;2023-02-01T11:36:46;12.20;;;2.70;;
19251;SDS011;9760;50.944;5.304;2023-02-01T11:42:05;25.13;;;3.30;;
19251;SDS011;9760;50.944;5.304;2023-02-01T11:44:42;21.10;;;3.30;;
19251;SDS011;9760;50.944;5.304;2023-02-01T11:50:05;19.63;;;3.67;;
19251;SDS011;9760;50.944;5.304;2023-02-01T11:52:49;15.83;;;3.07;;
19251;SDS011;9760;50.944;5.304;2023-02-01T12:09:31;13.23;;;2.93;;
19251;SDS011;9760;50.944;5.304;2023-02-01T12:12:11;13.03;;;2.50;;
19251;SDS011;9760;50.944;5.304;2023-02-01T12:18:05;10.73;;;2.40;;
19251;SDS011;9760;50.944;5.304;2023-02-01T12:26:42;16.03;;;2.67;;
19251;SDS011;9760;50.944;5.304;2023-02-01T12:45:41;19.63;;;3.40;;
19251;SDS011;9760;50.944;5.304;2023-02-01T12:50:55;16.47;;;2.77;;
19251;SDS011;9760;50.944;5.304;2023-02-01T12:53:30;22.33;;;3.63;;
19251;SDS011;9760;50.944;5.304;2023-02-01T12:56:06;18.80;;;2.70;;
19251;SDS011;9760;50.944;5.304;2023-02-01T12:58:49;15.77;;;2.87;;
19251;SDS011;9760;50.944;5.304;2023-02-01T13:04:24;13.30;;;2.13;;
19251;SDS011;9760;50.944;5.304;2023-02-01T13:07:14;26.33;;;3.00;;
19251;SDS011;9760;50.944;5.304;2023-02-01T13:09:47;21.63;;;2.93;;
19251;SDS011;9760;50.944;5.304;2023-02-01T13:12:25;14.37;;;2.67;;
19251;SDS011;9760;50.944;5.304;2023-02-01T13:14:57;11.60;;;2.60;;
19251;SDS011;9760;50.944;5.304;2023-02-01T13:17:28;16.80;;;2.47;;
19251;SDS011;9760;50.944;5.304;2023-02-01T13:22:30;16.37;;;2.63;;
19251;SDS011;9760;50.944;5.304;2023-02-01T13:27:35;20.13;;;2.60;;
19251;SDS011;9760;50.944;5.304;2023-02-01T13:43:53;14.20;;;2.10;;
19251;SDS011;9760;50.944;5.304;2023-02-01T13:46:24;9.17;;;1.90;;
19251;SDS011;9760;50.944;5.304;2023-02-01T13:48:51;15.00;;;2.30;;
19251;SDS011;9760;50.944;5.304;2023-02-01T13:51:31;11.03;;;2.67;;
19251;SDS011;9760;50.944;5.304;2023-02-01T13:54:03;9.23;;;1.73;;
19251;SDS011;9760;50.944;5.304;2023-02-01T13:56:39;16.00;;;2.37;;
19251;SDS011;9760;50.944;5.304;2023-02-01T14:10:51;17.00;;;2.30;;
19251;SDS011;9760;50.944;5.304;2023-02-01T14:13:28;12.10;;;2.83;;
19251;SDS011;9760;50.944;5.304;2023-02-01T14:21:46;13.73;;;3.10;;
19251;SDS011;9760;50.944;5.304;2023-02-01T14:24:13;13.50;;;2.30;;
19251;SDS011;9760;50.944;5.304;2023-02-01T14:26:46;13.50;;;2.63;;
19251;SDS011;9760;50.944;5.304;2023-02-01T14:29:25;17.60;;;2.70;;
19251;SDS011;9760;50.944;5.304;2023-02-01T14:32:00;13.80;;;2.37;;
19251;SDS011;9760;50.944;5.304;2023-02-01T14:47:48;11.87;;;2.23;;
19251;SDS011;9760;50.944;5.304;2023-02-01T14:55:40;16.10;;;3.23;;
19251;SDS011;9760;50.944;5.304;2023-02-01T15:01:03;10.93;;;2.20;;
19251;SDS011;9760;50.944;5.304;2023-02-01T15:03:58;21.33;;;3.77;;
19251;SDS011;9760;50.944;5.304;2023-02-01T15:06:43;11.87;;;2.33;;
19251;SDS011;9760;50.944;5.304;2023-02-01T15:09:37;17.97;;;2.60;;
19251;SDS011;9760;50.944;5.304;2023-02-01T15:14:43;13.10;;;2.23;;
19251;SDS011;9760;50.944;5.304;2023-02-01T15:17:27;15.53;;;2.20;;
19251;SDS011;9760;50.944;5.304;2023-02-01T15:20:20;16.97;;;2.70;;
19251;SDS011;9760;50.944;5.304;2023-02-01T15:22:52;10.60;;;2.13;;
19251;SDS011;9760;50.944;5.304;2023-02-01T15:25:21;11.17;;;2.23;;
19251;SDS011;9760;50.944;5.304;2023-02-01T15:27:49;14.33;;;2.70;;
19251;SDS011;9760;50.944;5.304;2023-02-01T15:30:18;12.50;;;2.10;;
19251;SDS011;9760;50.944;5.304;2023-02-01T15:32:49;17.60;;;2.57;;
19251;SDS011;9760;50.944;5.304;2023-02-01T15:43:25;15.50;;;2.60;;
19251;SDS011;9760;50.944;5.304;2023-02-01T15:45:55;13.90;;;2.30;;
19251;SDS011;9760;50.944;5.304;2023-02-01T15:48:24;21.60;;;3.03;;
19251;SDS011;9760;50.944;5.304;2023-02-01T15:50:52;16.67;;;2.53;;
19251;SDS011;9760;50.944;5.304;2023-02-01T15:53:21;17.27;;;2.83;;
19251;SDS011;9760;50.944;5.304;2023-02-01T15:55:53;19.50;;;3.03;;
19251;SDS011;9760;50.944;5.304;2023-02-01T15:58:21;21.10;;;3.23;;
19251;SDS011;9760;50.944;5.304;2023-02-01T16:03:26;16.13;;;2.57;;
19251;SDS011;9760;50.944;5.304;2023-02-01T16:06:11;10.87;;;2.33;;
19251;SDS011;9760;50.944;5.304;2023-02-01T16:08:55;28.90;;;3.33;;
19251;SDS011;9760;50.944;5.304;2023-02-01T16:11:32;15.53;;;2.40;;
19251;SDS011;9760;50.944;5.304;2023-02-01T16:14:06;13.63;;;2.43;;
19251;SDS011;9760;50.944;5.304;2023-02-01T16:16:31;18.53;;;2.40;;
19251;SDS011;9760;50.944;5.304;2023-02-01T16:18:57;16.87;;;2.80;;
19251;SDS011;9760;50.944;5.304;2023-02-01T16:21:23;14.13;;;2.63;;
19251;SDS011;9760;50.944;5.304;2023-02-01T16:23:49;14.57;;;2.93;;
19251;SDS011;9760;50.944;5.304;2023-02-01T16:26:16;16.53;;;2.80;;
19251;SDS011;9760;50.944;5.304;2023-02-01T16:28:42;19.57;;;3.10;;
19251;SDS011;9760;50.944;5.304;2023-02-01T16:31:15;16.03;;;3.03;;
19251;SDS011;9760;50.944;5.304;2023-02-01T16:33:46;24.77;;;3.33;;
19251;SDS011;9760;50.944;5.304;2023-02-01T16:36:14;21.50;;;3.73;;
19251;SDS011;9760;50.944;5.304;2023-02-01T16:38:40;25.20;;;4.00;;
19251;SDS011;9760;50.944;5.304;2023-02-01T16:41:05;22.50;;;3.40;;
19251;SDS011;9760;50.944;5.304;2023-02-01T16:43:31;14.57;;;3.03;;
19251;SDS011;9760;50.944;5.304;2023-02-01T16:45:58;24.93;;;2.80;;
19251;SDS011;9760;50.944;5.304;2023-02-01T16:48:28;23.30;;;3.07;;
19251;SDS011;9760;50.944;5.304;2023-02-01T16:50:58;21.70;;;3.27;;
19251;SDS011;9760;50.944;5.304;2023-02-01T16:53:26;23.57;;;3.63;;
19251;SDS011;9760;50.944;5.304;2023-02-01T16:55:54;15.70;;;4.07;;
19251;SDS011;9760;50.944;5.304;2023-02-01T16:58:23;23.27;;;3.70;;
19251;SDS011;9760;50.944;5.304;2023-02-01T17:00:52;23.93;;;3.57;;
19251;SDS011;9760;50.944;5.304;2023-02-01T17:03:18;20.87;;;3.17;;
19251;SDS011;9760;50.944;5.304;2023-02-01T17:05:55;16.70;;;3.83;;
19251;SDS011;9760;50.944;5.304;2023-02-01T17:08:24;21.20;;;3.83;;
19251;SDS011;9760;50.944;5.304;2023-02-01T17:10:56;19.00;;;3.03;;
19251;SDS011;9760;50.944;5.304;2023-02-01T17:13:22;16.90;;;4.13;;
19251;SDS011;9760;50.944;5.304;2023-02-01T17:15:49;21.70;;;3.17;;
19251;SDS011;9760;50.944;5.304;2023-02-01T17:18:20;28.00;;;3.43;;
19251;SDS011;9760;50.944;5.304;2023-02-01T17:20:46;21.17;;;3.07;;
19251;SDS011;9760;50.944;5.304;2023-02-01T17:23:12;23.77;;;3.17;;
19251;SDS011;9760;50.944;5.304;2023-02-01T17:25:39;16.90;;;2.60;;
19251;SDS011;9760;50.944;5.304;2023-02-01T17:28:06;12.47;;;2.83;;
19251;SDS011;9760;50.944;5.304;2023-02-01T17:30:32;13.90;;;2.90;;
19251;SDS011;9760;50.944;5.304;2023-02-01T17:32:57;31.43;;;4.63;;
19251;SDS011;9760;50.944;5.304;2023-02-01T17:35:24;21.77;;;3.37;;
19251;SDS011;9760;50.944;5.304;2023-02-01T17:37:51;19.53;;;3.03;;
19251;SDS011;9760;50.944;5.304;2023-02-01T17:40:17;21.63;;;2.60;;
19251;SDS011;9760;50.944;5.304;2023-02-01T17:42:44;18.33;;;3.50;;
19251;SDS011;9760;50.944;5.304;2023-02-01T17:47:45;17.43;;;3.80;;
19251;SDS011;9760;50.944;5.304;2023-02-01T17:50:12;19.13;;;3.47;;
19251;SDS011;9760;50.944;5.304;2023-02-01T17:52:38;19.80;;;3.07;;
19251;SDS011;9760;50.944;5.304;2023-02-01T17:55:14;16.57;;;3.07;;
19251;SDS011;9760;50.944;5.304;2023-02-01T17:57:43;20.17;;;3.00;;
19251;SDS011;9760;50.944;5.304;2023-02-01T18:00:09;22.63;;;3.60;;
19251;SDS011;9760;50.944;5.304;2023-02-01T18:02:37;19.50;;;3.00;;
19251;SDS011;9760;50.944;5.304;2023-02-01T18:05:09;21.13;;;3.40;;
19251;SDS011;9760;50.944;5.304;2023-02-01T18:07:50;33.83;;;3.50;;
19251;SDS011;9760;50.944;5.304;2023-02-01T18:10:16;17.93;;;3.20;;
19251;SDS011;9760;50.944;5.304;2023-02-01T18:12:42;13.53;;;3.07;;
19251;SDS011;9760;50.944;5.304;2023-02-01T18:15:15;27.17;;;3.43;;